Time;durP1;ratioP1;P1;durP2;ratioP2;P2;SDS_P1;SDS_P2;PMS_P1;PMS_P2;Temp;Humidity;BMP_temperature;BMP_pressure;BME280_temperature;BME280_humidity;BME280_pressure;Samples;Min_cycle;Max_cycle;Signal;HPM_P1;HPM_P2
2022/02/19 00:01:57;;;;;;;;;35.25;32.25;;;;;10.02;47.84;101404.53;146603;605;46016;-73
2022/02/19 00:04:49;;;;;;;;;6.00;5.25;;;;;10.02;48.43;101417.47;146607;604;46010;-73
2022/02/19 00:07:41;;;;;;;;;18.50;15.25;;;;;9.93;47.13;101420.37;146602;607;46016;-73
2022/02/19 00:10:33;;;;;;;;;10.00;8.00;;;;;9.93;48.51;101422.06;146606;576;46020;-73
2022/02/19 00:13:25;;;;;;;;;14.50;11.75;;;;;9.99;53.03;101416.41;146603;590;46917;-76
2022/02/19 00:16:17;;;;;;;;;10.75;10.75;;;;;10.03;54.20;101398.56;146607;642;47010;-71
2022/02/19 00:19:09;;;;;;;;;14.00;11.25;;;;;10.13;54.04;101402.63;146605;590;46014;-73
2022/02/19 00:22:01;;;;;;;;;15.00;10.00;;;;;10.21;55.03;101405.69;146606;604;46020;-71
2022/02/19 00:24:53;;;;;;;;;10.50;10.25;;;;;10.25;54.17;101405.09;146603;624;46015;-75
2022/02/19 00:27:46;;;;;;;;;12.50;11.50;;;;;9.28;53.36;101229.69;146609;602;46010;-75
2022/02/19 00:30:38;;;;;;;;;16.75;13.75;;;;;10.28;52.66;101400.13;146604;611;46016;-70
2022/02/19 00:33:31;;;;;;;;;13.75;13.75;;;;;10.22;51.67;101408.41;146602;613;46010;-69
2022/02/19 00:36:23;;;;;;;;;14.25;10.00;;;;;10.18;54.02;101419.34;146602;644;46016;-71
2022/02/19 00:39:16;;;;;;;;;15.25;13.00;;;;;10.19;55.70;101408.22;146604;576;46020;-70
2022/02/19 00:42:08;;;;;;;;;13.00;10.50;;;;;10.29;55.35;101396.75;146603;577;47014;-70
2022/02/19 00:45:00;;;;;;;;;10.25;9.25;;;;;10.41;54.51;101400.13;146605;597;47010;-70
2022/02/19 00:47:52;;;;;;;;;10.50;8.50;;;;;10.49;54.52;101387.62;146603;617;46016;-71
2022/02/19 00:50:46;;;;;;;;;11.75;11.75;;;;;10.55;54.17;101388.00;146607;643;47010;-71
2022/02/19 00:53:37;;;;;;;;;18.00;14.25;;;;;10.57;55.02;101394.19;146602;591;46016;-71
2022/02/19 00:56:30;;;;;;;;;12.75;11.75;;;;;10.56;55.89;101387.19;146606;652;46010;-71
2022/02/19 00:59:22;;;;;;;;;20.25;17.75;;;;;10.51;54.82;101386.03;146603;595;46016;-69
2022/02/19 01:02:15;;;;;;;;;13.25;12.25;;;;;10.52;55.16;101391.31;146604;566;46011;-69
2022/02/19 01:05:07;;;;;;;;;22.50;20.50;;;;;10.54;54.94;101394.91;146604;625;46012;-71
2022/02/19 01:07:59;;;;;;;;;12.25;11.50;;;;;10.51;54.89;101396.41;146603;566;46020;-70
2022/02/19 01:10:51;;;;;;;;;13.50;11.25;;;;;10.42;54.90;101396.72;146597;650;48917;-72
2022/02/19 01:13:43;;;;;;;;;10.00;10.00;;;;;10.28;54.10;101393.28;146608;680;46010;-70
2022/02/19 01:16:35;;;;;;;;;7.00;7.00;;;;;10.11;53.97;101393.84;146607;610;46017;-70
2022/02/19 01:19:27;;;;;;;;;7.75;7.00;;;;;9.93;53.37;101399.63;146608;576;46012;-70
2022/02/19 01:22:19;;;;;;;;;9.75;7.00;;;;;9.80;53.36;101396.19;146606;615;46012;-70
2022/02/19 01:25:13;;;;;;;;;7.00;5.75;;;;;9.71;52.88;101391.28;146608;570;47011;-71
2022/02/19 01:28:05;;;;;;;;;6.75;5.75;;;;;9.65;52.83;101372.75;146604;615;46016;-73
2022/02/19 01:30:57;;;;;;;;;6.25;5.00;;;;;9.56;53.21;101374.75;146608;648;46010;-68
2022/02/19 01:33:49;;;;;;;;;6.00;5.50;;;;;9.33;53.32;101373.25;146605;571;46017;-68
2022/02/19 01:36:41;;;;;;;;;4.25;4.00;;;;;9.14;52.88;101374.59;146606;626;47012;-68
2022/02/19 01:39:33;;;;;;;;;4.00;4.00;;;;;9.02;53.63;101374.66;146604;593;46016;-68
2022/02/19 01:42:27;;;;;;;;;5.25;4.75;;;;;8.95;53.53;101372.47;146608;575;46021;-68
2022/02/19 01:45:19;;;;;;;;;5.75;5.50;;;;;8.90;53.56;101385.87;146608;570;46012;-69
2022/02/19 01:48:12;;;;;;;;;6.25;5.75;;;;;8.84;53.41;101380.28;146609;652;46021;-68
2022/02/19 01:51:04;;;;;;;;;5.25;5.00;;;;;8.74;53.90;101374.47;146605;569;46916;-68
2022/02/19 01:53:56;;;;;;;;;7.00;5.75;;;;;8.70;53.48;101372.47;146610;598;46010;-71
2022/02/19 01:56:48;;;;;;;;;6.25;4.00;;;;;8.67;53.30;101369.69;146603;598;46017;-72
2022/02/19 01:59:43;;;;;;;;;6.25;6.25;;;;;8.60;54.72;101380.38;146604;671;46020;-72
2022/02/19 02:02:35;;;;;;;;;16.50;14.75;;;;;8.48;56.49;101387.28;146624;619;45917;-73
2022/02/19 02:05:28;;;;;;;;;6.50;6.50;;;;;8.40;56.59;101391.91;146629;613;45020;-72
2022/02/19 02:08:21;;;;;;;;;5.00;4.25;;;;;8.40;54.96;101393.59;146625;588;46014;-73
2022/02/19 02:11:13;;;;;;;;;5.75;5.00;;;;;8.40;55.03;101386.72;146629;649;45020;-73
2022/02/19 02:14:05;;;;;;;;;6.00;5.50;;;;;8.44;54.95;101382.66;146625;672;45015;-73
2022/02/19 02:16:57;;;;;;;;;5.00;4.00;;;;;8.49;54.58;101389.06;146631;665;45027;-73
2022/02/19 02:19:49;;;;;;;;;5.25;4.75;;;;;8.53;54.33;101385.91;146625;589;45918;-72
2022/02/19 02:22:42;;;;;;;;;6.25;5.25;;;;;8.52;54.13;101372.09;146629;589;45010;-72
2022/02/19 02:25:36;;;;;;;;;6.50;4.50;;;;;8.54;53.65;101380.84;146625;732;45016;-72
2022/02/19 02:28:28;;;;;;;;;5.50;3.00;;;;;8.56;53.42;101388.69;146625;616;46020;-71
2022/02/19 02:31:21;;;;;;;;;4.25;4.25;;;;;8.58;54.04;101381.97;146624;596;45016;-90
2022/02/19 02:34:13;;;;;;;;;5.00;2.75;;;;;8.55;53.63;101380.06;146630;621;45010;-73
2022/02/19 02:37:04;;;;;;;;;5.25;4.25;;;;;8.46;53.90;101371.66;146627;621;45016;-73
2022/02/19 02:39:57;;;;;;;;;6.25;4.75;;;;;8.42;54.69;101372.25;146630;569;45012;-76
2022/02/19 02:42:49;;;;;;;;;6.50;5.50;;;;;8.27;55.10;101365.97;146627;596;45016;-71
2022/02/19 02:45:41;;;;;;;;;6.75;6.00;;;;;8.15;53.84;101376.31;146628;577;46010;-69
2022/02/19 02:48:34;;;;;;;;;7.00;4.25;;;;;8.10;54.26;101375.13;146625;619;45017;-69
2022/02/19 02:51:26;;;;;;;;;3.00;2.00;;;;;8.11;53.97;101387.22;146630;685;45010;-70
2022/02/19 02:54:18;;;;;;;;;6.50;5.00;;;;;8.12;54.58;101390.69;146628;703;45012;-71
2022/02/19 02:57:10;;;;;;;;;11.00;8.00;;;;;8.04;54.73;101395.34;146626;683;45010;-70
2022/02/19 03:00:02;;;;;;;;;9.00;7.75;;;;;7.91;55.72;101390.94;146625;612;46016;-69
2022/02/19 03:02:54;;;;;;;;;8.75;8.75;;;;;7.83;55.83;101392.09;146608;575;46011;-70
2022/02/19 03:05:47;;;;;;;;;10.00;10.00;;;;;7.79;55.25;101397.81;146605;624;46016;-72
2022/02/19 03:08:39;;;;;;;;;11.50;9.75;;;;;7.76;55.96;101393.34;146608;659;46010;-73
2022/02/19 03:11:31;;;;;;;;;11.00;8.00;;;;;7.70;56.81;101392.00;146606;602;46016;-73
2022/02/19 03:14:23;;;;;;;;;7.25;7.00;;;;;7.59;56.86;101399.81;146606;668;46010;-73
2022/02/19 03:17:15;;;;;;;;;6.25;4.25;;;;;7.51;56.21;101400.06;146606;614;46016;-71
2022/02/19 03:20:10;;;;;;;;;4.25;4.00;;;;;7.46;56.53;101397.13;146606;682;46020;-71
2022/02/19 03:23:02;;;;;;;;;5.00;5.00;;;;;7.46;55.73;101391.06;146605;572;46012;-74
2022/02/19 03:25:54;;;;;;;;;4.00;2.25;;;;;7.55;55.46;101404.66;146607;656;46011;-72
2022/02/19 03:28:46;;;;;;;;;6.25;5.75;;;;;7.64;56.03;101401.06;146604;719;46016;-72
2022/02/19 03:31:38;;;;;;;;;4.50;4.00;;;;;7.71;56.31;101397.25;146609;641;46013;-71
2022/02/19 03:34:30;;;;;;;;;7.25;4.25;;;;;7.70;55.55;101402.31;146605;571;46016;-70
2022/02/19 03:37:22;;;;;;;;;5.00;4.50;;;;;7.71;55.48;101407.56;146608;570;46020;-77
2022/02/19 03:40:15;;;;;;;;;6.00;6.00;;;;;7.70;55.28;101417.81;146606;569;46014;-71
2022/02/19 03:43:07;;;;;;;;;4.25;3.00;;;;;7.64;56.17;101415.66;146605;630;47020;-71
2022/02/19 03:45:58;;;;;;;;;4.25;4.25;;;;;7.58;56.36;101431.59;146605;574;46012;-71
2022/02/19 03:48:51;;;;;;;;;5.75;5.75;;;;;7.55;57.18;101443.37;146604;617;46020;-73
2022/02/19 03:51:42;;;;;;;;;3.00;3.00;;;;;7.50;56.35;101436.94;146603;705;46916;-76
2022/02/19 03:54:35;;;;;;;;;6.00;5.00;;;;;7.46;56.48;101438.41;146606;571;46010;-73
2022/02/19 03:57:26;;;;;;;;;4.75;4.75;;;;;7.49;56.39;101436.06;146605;632;47012;-75
2022/02/19 04:00:19;;;;;;;;;6.00;5.50;;;;;7.52;56.03;101441.44;146608;575;46010;-75
2022/02/19 04:03:11;;;;;;;;;4.25;3.50;;;;;7.56;56.33;101440.00;146606;571;46016;-75
2022/02/19 04:06:04;;;;;;;;;5.00;5.00;;;;;7.56;56.27;101430.56;146609;603;46020;-75
2022/02/19 04:08:56;;;;;;;;;3.00;3.00;;;;;7.54;56.06;101436.38;146601;583;46016;-69
2022/02/19 04:11:49;;;;;;;;;7.00;6.00;;;;;7.51;55.92;101438.78;146608;589;46010;-68
2022/02/19 04:14:41;;;;;;;;;5.75;3.50;;;;;7.53;55.52;101450.09;146603;569;46016;-69
2022/02/19 04:17:33;;;;;;;;;3.00;2.25;;;;;7.54;55.19;101449.28;146610;629;46010;-67
2022/02/19 04:20:25;;;;;;;;;4.75;3.75;;;;;7.61;55.49;101452.47;146604;582;46012;-66
2022/02/19 04:23:17;;;;;;;;;3.50;2.50;;;;;7.69;55.22;101450.44;146606;583;46010;-68
2022/02/19 04:26:09;;;;;;;;;4.00;4.00;;;;;7.74;55.76;101455.97;146604;594;46012;-68
2022/02/19 04:29:01;;;;;;;;;6.25;4.00;;;;;7.72;55.19;101455.81;146607;576;46010;-68
2022/02/19 04:31:54;;;;;;;;;5.50;3.00;;;;;7.65;55.19;101448.41;146602;666;46014;-69
2022/02/19 04:34:47;;;;;;;;;4.25;3.00;;;;;7.63;55.76;101450.91;146606;566;46020;-69
2022/02/19 04:37:40;;;;;;;;;4.00;3.00;;;;;7.58;55.58;101454.81;146606;603;46012;-68
2022/02/19 04:40:32;;;;;;;;;4.75;4.00;;;;;7.55;56.32;101452.00;146606;701;46021;-67
2022/02/19 04:43:24;;;;;;;;;4.00;4.00;;;;;7.47;56.88;101450.50;146605;604;47014;-68
2022/02/19 04:46:17;;;;;;;;;5.00;4.00;;;;;7.38;56.98;101454.97;146606;599;47010;-68
2022/02/19 04:49:11;;;;;;;;;5.00;3.00;;;;;7.31;56.88;101461.38;146607;613;46016;-67
2022/02/19 04:52:03;;;;;;;;;7.00;6.00;;;;;7.30;56.84;101453.53;146605;591;46010;-67
2022/02/19 04:54:55;;;;;;;;;4.25;4.25;;;;;7.26;57.89;101456.63;146603;713;47014;-67
2022/02/19 04:57:48;;;;;;;;;11.50;7.50;;;;;7.18;57.67;101458.66;146608;599;46012;-67
2022/02/19 05:00:39;;;;;;;;;6.75;6.75;;;;;7.13;57.64;101459.97;146605;692;45017;-67
2022/02/19 05:03:32;;;;;;;;;8.75;8.75;;;;;7.12;58.03;101466.81;146609;564;46012;-66
2022/02/19 05:06:24;;;;;;;;;15.75;12.75;;;;;7.12;58.57;101468.50;146604;569;46012;-67
2022/02/19 05:09:16;;;;;;;;;16.25;14.75;;;;;7.09;58.41;101468.25;146605;576;46021;-67
2022/02/19 05:12:09;;;;;;;;;14.50;13.00;;;;;7.02;59.52;101476.31;146602;579;46014;-66
2022/02/19 05:15:03;;;;;;;;;15.75;15.75;;;;;6.94;58.70;101476.59;146605;640;46020;-65
2022/02/19 05:17:58;;;;;;;;;15.50;12.00;;;;;6.90;58.90;101482.28;146603;585;46917;-66
2022/02/19 05:20:50;;;;;;;;;42.00;34.25;;;;;6.91;58.69;101484.09;146603;575;46010;-71
2022/02/19 05:23:42;;;;;;;;;9.25;9.25;;;;;6.90;59.70;101478.81;146605;576;46013;-69
2022/02/19 05:26:35;;;;;;;;;11.25;11.00;;;;;6.85;58.98;101478.47;146606;727;46010;-67
2022/02/19 05:29:26;;;;;;;;;8.25;7.50;;;;;6.82;59.70;101483.41;146605;564;46013;-67
2022/02/19 05:32:20;;;;;;;;;6.75;6.00;;;;;6.83;59.02;101489.44;146608;677;46012;-67
2022/02/19 05:35:12;;;;;;;;;12.25;9.75;;;;;6.87;59.31;101484.63;146604;649;46034;-67
2022/02/19 05:38:05;;;;;;;;;9.50;7.75;;;;;6.94;59.30;101479.16;146606;627;46021;-68
2022/02/19 05:40:57;;;;;;;;;6.50;6.50;;;;;7.00;59.29;101477.84;146604;644;46016;-65
2022/02/19 05:43:49;;;;;;;;;25.25;24.75;;;;;7.05;59.42;101471.37;146608;599;46017;-65
2022/02/19 05:46:40;;;;;;;;;10.50;10.25;;;;;7.09;59.47;101489.78;146605;604;46017;-66
2022/02/19 05:49:34;;;;;;;;;9.00;6.50;;;;;7.11;58.85;101485.66;146606;668;47010;-67
2022/02/19 05:52:26;;;;;;;;;6.00;5.75;;;;;7.39;59.27;101478.34;146606;627;46017;-66
2022/02/19 05:55:18;;;;;;;;;7.25;7.00;;;;;8.41;58.89;101475.50;146608;588;46010;-67
2022/02/19 05:58:11;;;;;;;;;6.00;6.00;;;;;9.63;54.91;101478.84;146605;611;46012;-66
2022/02/19 06:01:03;;;;;;;;;8.25;8.25;;;;;10.72;53.25;101492.81;146606;615;46021;-67
2022/02/19 06:03:55;;;;;;;;;51.00;40.00;;;;;11.81;51.13;101487.31;146604;576;46012;-72
2022/02/19 06:06:47;;;;;;;;;16.75;15.50;;;;;12.90;49.46;101481.34;146608;577;46010;-75
2022/02/19 06:09:39;;;;;;;;;9.25;6.50;;;;;13.95;46.53;101486.75;146603;601;47012;-71
2022/02/19 06:12:31;;;;;;;;;8.25;6.00;;;;;14.73;46.40;101488.81;146606;593;46012;-73
2022/02/19 06:15:23;;;;;;;;;7.25;6.75;;;;;15.61;44.98;101493.63;146604;599;47012;-72
2022/02/19 06:18:16;;;;;;;;;8.75;8.00;;;;;16.53;43.34;101500.06;146604;566;46010;-72
2022/02/19 06:21:07;;;;;;;;;16.50;16.00;;;;;17.36;41.69;101504.94;146604;676;47012;-72
2022/02/19 06:24:00;;;;;;;;;24.75;24.25;;;;;18.04;39.48;101510.81;146606;588;46021;-72
2022/02/19 06:26:51;;;;;;;;;22.50;19.50;;;;;18.51;39.18;101511.47;146606;564;46012;-72
2022/02/19 06:29:44;;;;;;;;;29.25;23.75;;;;;18.95;38.46;101511.97;146606;581;46021;-72
2022/02/19 06:32:37;;;;;;;;;31.50;22.75;;;;;19.28;37.66;101505.06;146605;579;46014;-71
2022/02/19 06:35:29;;;;;;;;;35.00;30.75;;;;;19.49;37.12;101512.63;146606;578;46020;-74
2022/02/19 06:38:22;;;;;;;;;42.75;35.25;;;;;19.39;35.58;101515.88;146604;575;46013;-73
2022/02/19 06:41:14;;;;;;;;;32.50;29.25;;;;;19.07;36.72;101536.00;146605;681;46010;-77
2022/02/19 06:44:06;;;;;;;;;37.75;33.25;;;;;18.83;37.87;101520.38;146603;608;46013;-75
2022/02/19 06:46:58;;;;;;;;;49.00;42.00;;;;;18.62;38.01;101534.59;146603;564;46012;-75
2022/02/19 06:49:50;;;;;;;;;26.75;25.75;;;;;18.39;37.41;101539.13;146603;569;46016;-73
2022/02/19 06:52:43;;;;;;;;;22.25;19.75;;;;;18.05;37.93;101547.62;146607;580;46010;-77
2022/02/19 06:55:35;;;;;;;;;26.50;24.00;;;;;17.72;38.45;101552.53;146604;573;47012;-76
2022/02/19 06:58:27;;;;;;;;;35.75;32.00;;;;;17.43;39.78;101565.50;146607;662;46010;-75
2022/02/19 07:01:19;;;;;;;;;54.00;44.00;;;;;17.24;40.48;101566.56;146605;573;46031;-76
2022/02/19 07:04:15;;;;;;;;;41.25;34.75;;;;;17.08;39.92;101567.72;146603;585;46020;-75
2022/02/19 07:07:06;;;;;;;;;51.75;41.25;;;;;17.01;39.87;101572.69;146602;581;46016;-75
2022/02/19 07:09:59;;;;;;;;;46.75;37.00;;;;;16.96;39.69;101566.34;146607;577;46010;-75
2022/02/19 07:12:50;;;;;;;;;39.50;31.25;;;;;16.93;40.24;101574.97;146603;614;46016;-79
2022/02/19 07:15:43;;;;;;;;;29.00;26.25;;;;;16.94;39.54;101578.50;146602;647;46021;-71
2022/02/19 07:18:35;;;;;;;;;23.00;21.00;;;;;16.89;40.19;101575.72;146603;565;45039;-71
2022/02/19 07:21:27;;;;;;;;;36.25;32.25;;;;;16.92;40.50;101583.69;146608;597;46011;-71
2022/02/19 07:24:19;;;;;;;;;25.75;24.50;;;;;16.95;41.18;101591.66;146605;581;46016;-71
2022/02/19 07:27:12;;;;;;;;;29.50;27.25;;;;;17.00;41.61;101578.72;146605;595;46010;-71
2022/02/19 07:30:03;;;;;;;;;22.50;21.75;;;;;17.09;41.19;101577.34;146604;585;46016;-71
2022/02/19 07:32:56;;;;;;;;;23.00;20.25;;;;;17.17;40.42;101566.28;146606;589;46010;-71
2022/02/19 07:35:47;;;;;;;;;25.50;23.75;;;;;17.20;39.98;101567.28;146603;620;46013;-72
2022/02/19 07:38:40;;;;;;;;;13.25;12.75;;;;;16.23;39.92;101396.78;146602;607;47913;-72
2022/02/19 07:41:32;;;;;;;;;16.00;15.00;;;;;17.30;40.26;101579.91;146600;600;46016;-72
2022/02/19 07:44:25;;;;;;;;;13.50;13.00;;;;;17.43;40.65;101575.09;146607;579;46011;-72
2022/02/19 07:47:25;;;;;;;;;13.50;12.00;;;;;17.59;41.48;101566.97;146602;608;46016;-72
2022/02/19 07:59:47;;;;;;;;;17.00;16.25;;;;;17.60;41.23;101573.09;146604;638;46012;-73
2022/02/19 08:02:39;;;;;;;;;21.00;19.00;;;;;17.73;40.86;101576.22;146629;569;45020;-71
2022/02/19 08:05:32;;;;;;;;;25.25;24.00;;;;;17.87;40.68;101581.97;146626;581;45012;-71
2022/02/19 08:08:25;;;;;;;;;23.00;20.50;;;;;17.95;40.22;101577.00;146629;575;45010;-71
2022/02/19 08:11:18;;;;;;;;;23.75;22.00;;;;;18.00;40.00;101578.94;146627;607;45917;-71
2022/02/19 08:14:10;;;;;;;;;22.75;21.25;;;;;18.07;39.53;101571.28;146624;570;45021;-71
2022/02/19 08:17:03;;;;;;;;;26.25;21.50;;;;;18.17;39.65;101579.53;146625;583;45916;-71
2022/02/19 08:19:55;;;;;;;;;27.50;24.00;;;;;18.29;38.96;101572.91;146621;628;46010;-71
2022/02/19 08:22:47;;;;;;;;;28.75;24.00;;;;;18.31;39.20;101563.34;146623;564;45016;-71
2022/02/19 08:25:41;;;;;;;;;22.25;20.00;;;;;18.34;39.77;101566.94;146625;620;45020;-71
2022/02/19 08:28:34;;;;;;;;;24.50;23.75;;;;;18.46;40.31;101555.97;146627;611;45013;-71
2022/02/19 08:31:26;;;;;;;;;13.25;12.00;;;;;18.54;40.71;101553.59;146628;645;45010;-72
2022/02/19 08:34:18;;;;;;;;;15.50;13.75;;;;;18.64;40.78;101555.66;146623;640;45016;-70
2022/02/19 08:37:10;;;;;;;;;15.50;12.75;;;;;18.67;42.00;101556.66;146624;570;45021;-70
2022/02/19 08:40:02;;;;;;;;;20.00;18.75;;;;;18.65;41.43;101562.69;146626;588;46010;-70
2022/02/19 08:42:55;;;;;;;;;20.00;18.00;;;;;18.60;41.04;101564.31;146627;671;45011;-70
2022/02/19 08:45:47;;;;;;;;;12.75;10.75;;;;;18.60;41.48;101562.56;146626;602;45918;-70
2022/02/19 08:48:40;;;;;;;;;8.50;8.00;;;;;18.63;42.40;101573.16;146628;614;45913;-70
2022/02/19 08:51:31;;;;;;;;;11.00;9.50;;;;;18.60;42.00;101567.81;146627;670;45013;-70
2022/02/19 08:54:24;;;;;;;;;4.75;4.75;;;;;18.58;41.89;101580.00;146629;574;45020;-70
2022/02/19 08:57:16;;;;;;;;;7.25;6.00;;;;;17.65;42.97;101414.19;146628;595;45016;-70
2022/02/19 09:00:12;;;;;;;;;11.00;8.50;;;;;18.62;41.83;101568.72;146628;602;45049;-70
2022/02/19 09:03:04;;;;;;;;;9.00;8.00;;;;;18.61;42.29;101577.47;146604;626;46012;-70
2022/02/19 09:05:56;;;;;;;;;8.00;7.50;;;;;18.65;42.39;101579.34;146609;675;46011;-70
2022/02/19 09:08:48;;;;;;;;;6.33;5.67;;;;;18.72;42.52;101575.16;146607;641;46016;-70
2022/02/19 09:11:41;;;;;;;;;6.33;6.33;;;;;18.75;42.33;101572.69;146605;604;47013;-70
2022/02/19 09:14:33;;;;;;;;;6.67;5.00;;;;;18.81;41.96;101580.75;146605;565;46016;-70
2022/02/19 09:17:25;;;;;;;;;9.25;7.50;;;;;18.75;41.97;101575.31;146607;593;46010;-70
2022/02/19 09:20:21;;;;;;;;;5.33;5.33;;;;;18.72;42.24;101575.16;146608;648;46017;-70
2022/02/19 09:23:13;;;;;;;;;6.67;5.00;;;;;18.63;41.36;101567.91;146609;611;46010;-70
2022/02/19 09:26:05;;;;;;;;;4.00;4.00;;;;;18.51;42.14;101561.38;146605;582;46016;-70
2022/02/19 09:28:57;;;;;;;;;6.33;5.00;;;;;18.48;42.86;101554.28;146609;581;46010;-70
2022/02/19 09:31:50;;;;;;;;;5.67;4.67;;;;;18.64;43.30;101555.66;146604;642;46016;-71
2022/02/19 09:34:42;;;;;;;;;7.25;6.25;;;;;18.76;42.86;101563.97;146606;583;46021;-70
2022/02/19 09:37:34;;;;;;;;;5.33;5.33;;;;;18.89;43.55;101554.72;146606;592;47012;-71
2022/02/19 09:40:27;;;;;;;;;6.00;5.33;;;;;18.96;42.61;101558.44;146606;596;46020;-70
2022/02/19 09:43:23;;;;;;;;;13.00;11.00;;;;;18.97;43.31;101549.69;146604;675;46012;-70
2022/02/19 09:46:19;;;;;;;;;10.00;8.75;;;;;18.93;42.55;101551.34;146608;590;46010;-70
2022/02/19 09:49:12;;;;;;;;;7.25;7.25;;;;;18.96;43.50;101545.28;146603;578;46017;-70
2022/02/19 09:52:04;;;;;;;;;8.33;6.00;;;;;19.04;43.11;101549.94;146610;593;45020;-72
2022/02/19 09:55:01;;;;;;;;;7.33;6.00;;;;;18.91;43.06;101539.91;146604;597;46016;-70
2022/02/19 09:57:53;;;;;;;;;6.67;4.67;;;;;18.65;43.68;101533.78;146610;631;46010;-71
2022/02/19 10:00:48;;;;;;;;;5.33;5.00;;;;;18.52;45.27;101537.78;146607;563;46016;-70
2022/02/19 10:03:40;;;;;;;;;3.00;2.00;;;;;18.45;44.62;101543.69;146609;587;46010;-70
2022/02/19 10:06:34;;;;;;;;;7.25;6.75;;;;;18.62;45.73;101533.69;146605;563;46016;-70
2022/02/19 10:09:27;;;;;;;;;5.00;4.00;;;;;18.89;44.65;101539.84;146608;670;45912;-70
2022/02/19 10:12:21;;;;;;;;;4.67;4.67;;;;;19.17;44.29;101530.16;146605;642;46017;-70
2022/02/19 10:15:13;;;;;;;;;6.00;5.00;;;;;19.41;44.47;101526.41;146608;563;46020;-69
2022/02/19 10:18:05;;;;;;;;;6.25;4.00;;;;;19.59;43.40;101513.78;146605;649;47012;-69
2022/02/19 10:21:29;;;;;;;;;2.33;2.33;;;;;19.60;42.98;101495.41;146610;576;46010;-69
2022/02/19 10:24:21;;;;;;;;;4.33;3.33;;;;;19.60;42.81;101507.69;146605;622;46018;-69
2022/02/19 10:27:13;;;;;;;;;7.00;7.00;;;;;19.65;41.63;101505.19;146605;564;46021;-70
2022/02/19 10:30:09;;;;;;;;;5.00;4.00;;;;;19.78;42.35;101499.41;146604;586;46014;-69
2022/02/19 10:33:07;;;;;;;;;4.50;4.50;;;;;19.84;41.95;101497.84;146610;676;46010;-70
2022/02/19 10:35:59;;;;;;;;;8.67;6.33;;;;;19.82;39.35;101488.13;146610;645;45917;-70
2022/02/19 10:39:02;;;;;;;;;11.75;10.25;;;;;19.90;41.26;101494.44;146604;619;46010;-70
2022/02/19 10:41:54;;;;;;;;;9.67;6.67;;;;;20.03;36.79;101495.66;146607;602;46013;-70
2022/02/19 10:44:46;;;;;;;;;4.67;4.67;;;;;20.16;38.84;101495.13;146610;652;46010;-70
2022/02/19 10:47:38;;;;;;;;;10.00;7.00;;;;;20.35;38.45;101485.03;146602;629;46916;-70
2022/02/19 10:50:30;;;;;;;;;11.00;10.00;;;;;20.49;35.15;101478.31;146606;566;46030;-69
2022/02/19 10:53:31;;;;;;;;;9.00;7.67;;;;;20.38;36.22;101469.28;146603;563;47014;-70
2022/02/19 10:56:28;;;;;;;;;9.25;7.25;;;;;20.23;33.38;101478.59;146606;683;46021;-71
2022/02/19 10:59:21;;;;;;;;;7.00;7.00;;;;;20.13;32.84;101468.72;146608;684;46016;-71
2022/02/19 11:02:17;;;;;;;;;4.33;3.00;;;;;19.98;30.84;101468.34;146608;582;46010;-70
2022/02/19 11:05:11;;;;;;;;;3.33;2.67;;;;;19.85;30.67;101467.16;146605;566;47917;-70
2022/02/19 11:08:04;;;;;;;;;4.67;2.00;;;;;19.76;31.26;101459.03;146606;594;46020;-70
2022/02/19 11:10:57;;;;;;;;;5.00;4.00;;;;;19.68;30.70;101458.81;146602;569;46017;-70
2022/02/19 11:13:51;;;;;;;;;4.67;3.33;;;;;19.63;29.74;101455.16;146606;597;46020;-68
2022/02/19 11:16:43;;;;;;;;;7.67;6.33;;;;;19.65;31.90;101450.84;146606;571;46016;-71
2022/02/19 11:19:35;;;;;;;;;4.67;3.00;;;;;19.70;32.76;101450.97;146609;592;46012;-70
2022/02/19 11:22:27;;;;;;;;;9.00;8.25;;;;;19.81;34.17;101444.22;146605;629;46034;-70
2022/02/19 11:25:23;;;;;;;;;9.75;9.50;;;;;19.97;33.58;101434.94;146604;569;47010;-69
2022/02/19 11:28:17;;;;;;;;;12.00;9.75;;;;;20.16;37.25;101439.81;146605;583;46917;-70
2022/02/19 11:31:14;;;;;;;;;12.00;10.25;;;;;20.35;36.55;101440.25;146607;622;46020;-70
2022/02/19 11:34:08;;;;;;;;;8.25;7.00;;;;;20.49;36.27;101434.41;146604;711;46022;-69
2022/02/19 11:37:21;;;;;;;;;11.75;10.00;;;;;20.67;38.69;101433.97;146606;718;46010;-69
2022/02/19 11:40:19;;;;;;;;;10.50;8.00;;;;;20.76;35.33;101430.63;146602;586;46017;-72
2022/02/19 11:43:11;;;;;;;;;7.75;6.00;;;;;20.87;36.65;101426.47;146608;576;46010;-69
2022/02/19 11:46:06;;;;;;;;;11.00;10.00;;;;;20.99;35.01;101434.59;146602;667;47012;-69
2022/02/19 11:48:58;;;;;;;;;12.00;10.75;;;;;20.99;35.18;101431.09;146605;669;46021;-70
2022/02/19 11:51:51;;;;;;;;;9.25;8.75;;;;;20.15;35.50;101277.41;146605;593;46016;-71
2022/02/19 11:54:43;;;;;;;;;10.25;10.00;;;;;20.98;34.99;101414.38;146605;603;47012;-71
2022/02/19 11:57:35;;;;;;;;;16.00;11.25;;;;;20.99;33.66;101418.78;146605;618;45916;-71
2022/02/19 12:01:13;;;;;;;;;13.25;12.00;;;;;21.03;36.70;101414.50;146605;612;47010;-69
2022/02/19 12:04:34;;;;;;;;;10.00;10.00;;;;;21.03;33.92;101409.22;146604;622;46017;-70
2022/02/19 12:07:26;;;;;;;;;10.25;8.75;;;;;21.01;31.35;101404.78;146604;659;47010;-69
2022/02/19 12:10:18;;;;;;;;;10.00;8.50;;;;;21.05;33.24;101398.69;146604;610;46017;-68
2022/02/19 12:13:19;;;;;;;;;10.00;10.00;;;;;20.99;30.91;101400.34;146607;621;46010;-69
2022/02/19 12:16:49;;;;;;;;;8.50;7.00;;;;;20.90;34.29;101375.53;146606;576;46014;-68
2022/02/19 12:20:09;;;;;;;;;8.75;8.75;;;;;20.90;35.98;101386.09;146606;599;46021;-69
2022/02/19 12:23:03;;;;;;;;;9.75;8.00;;;;;20.91;34.22;101380.88;146607;570;46012;-69
2022/02/19 12:26:11;;;;;;;;;9.25;9.25;;;;;21.02;36.02;101388.97;146607;636;46021;-69
2022/02/19 12:29:28;;;;;;;;;7.75;7.75;;;;;21.03;35.67;101382.84;146606;628;45916;-68
2022/02/19 12:32:22;;;;;;;;;10.25;10.25;;;;;20.97;34.41;101380.09;146605;640;46020;-69
2022/02/19 12:35:14;;;;;;;;;6.67;5.33;;;;;20.93;33.73;101380.88;146608;611;46014;-70
2022/02/19 12:38:07;;;;;;;;;10.25;9.00;;;;;20.68;31.81;101369.84;146602;584;47020;-68
2022/02/19 12:40:59;;;;;;;;;6.75;6.25;;;;;20.57;32.93;101381.94;146604;673;46917;-68
2022/02/19 12:44:09;;;;;;;;;9.25;8.75;;;;;20.63;35.22;101371.53;146608;605;46020;-69
2022/02/19 12:47:01;;;;;;;;;9.33;8.00;;;;;20.70;33.63;101367.25;146600;573;47012;-69
2022/02/19 12:49:53;;;;;;;;;7.00;5.33;;;;;20.74;31.56;101366.44;146608;586;46010;-69
2022/02/19 12:52:46;;;;;;;;;6.00;6.00;;;;;20.77;33.78;101369.16;146608;603;46012;-68
2022/02/19 12:55:38;;;;;;;;;5.00;4.00;;;;;20.73;32.77;101362.94;146605;693;46021;-69
2022/02/19 12:58:30;;;;;;;;;8.67;3.00;;;;;20.64;30.64;101356.59;146606;668;46016;-68
2022/02/19 13:01:22;;;;;;;;;8.00;7.00;;;;;20.63;34.63;101355.72;146603;685;46010;-69
2022/02/19 13:04:14;;;;;;;;;6.33;5.33;;;;;20.68;32.81;101345.25;146607;577;46016;-69
2022/02/19 13:07:08;;;;;;;;;7.67;5.33;;;;;20.71;33.63;101335.66;146607;586;46010;-68
2022/02/19 13:10:03;;;;;;;;;4.00;3.33;;;;;20.75;31.30;101349.81;146605;585;46917;-68
2022/02/19 13:12:55;;;;;;;;;6.33;5.00;;;;;20.82;32.71;101346.41;146607;596;46020;-68
2022/02/19 13:15:46;;;;;;;;;7.00;6.67;;;;;20.92;34.50;101336.94;146606;653;47012;-69
2022/02/19 13:18:46;;;;;;;;;7.25;5.25;;;;;21.08;35.07;101333.72;146609;590;46010;-69
2022/02/19 13:21:38;;;;;;;;;6.00;6.00;;;;;21.18;33.47;101340.94;146605;589;46016;-68
2022/02/19 13:24:32;;;;;;;;;6.75;6.00;;;;;21.24;33.13;101332.22;146603;567;46013;-68
2022/02/19 13:27:30;;;;;;;;;6.00;5.75;;;;;21.32;33.58;101322.69;146606;574;45017;-69
2022/02/19 13:30:23;;;;;;;;;8.50;8.50;;;;;21.38;33.37;101328.13;146607;563;46020;-69
2022/02/19 13:33:15;;;;;;;;;4.50;4.25;;;;;21.46;32.40;101336.13;146605;564;46013;-68